Time;durP1;ratioP1;P1;durP2;ratioP2;P2;SDS_P1;SDS_P2;PMS_P1;PMS_P2;Temp;Humidity;BMP_temperature;BMP_pressure;BME280_temperature;BME280_humidity;BME280_pressure;Samples;Min_cycle;Max_cycle;Signal;HPM_P1;HPM_P2
2022/04/12 00:00:25;;;;;;;0.10;0.10;;;11.70;99.90;11.40;100919.00;;;;5115012;28;20180;-73
2022/04/12 00:02:54;;;;;;;0.20;0.20;;;11.50;99.90;11.50;100904.00;;;;5098259;28;20188;-73
2022/04/12 00:05:20;;;;;;;4.53;1.50;;;11.30;99.90;11.40;100899.00;;;;5096425;28;20307;-73
2022/04/12 00:07:52;;;;;;;0.20;0.20;;;11.30;99.90;11.40;100891.00;;;;5115340;28;20182;-73
2022/04/12 00:10:27;;;;;;;0.47;0.47;;;11.30;99.90;11.60;100845.00;;;;5114935;28;20232;-72
2022/04/12 00:12:58;;;;;;;1.23;0.93;;;11.40;99.90;11.20;100885.00;;;;5115305;28;20537;-73
2022/04/12 00:15:32;;;;;;;1.87;0.70;;;11.30;99.90;11.70;100883.00;;;;5114890;28;20195;-73
2022/04/12 00:20:53;;;;;;;2.93;0.40;;;11.40;99.90;11.40;100872.00;;;;5114612;28;20545;-73
2022/04/12 00:23:19;;;;;;;0.30;0.30;;;11.30;99.90;11.80;100831.00;;;;5114267;28;20181;-72
2022/04/12 00:25:53;;;;;;;0.43;0.43;;;11.40;99.90;11.60;100868.00;;;;5114879;28;20185;-72
2022/04/12 00:28:29;;;;;;;0.60;0.60;;;11.30;99.90;11.70;100848.00;;;;5115368;28;20180;-72
2022/04/12 00:31:02;;;;;;;0.30;0.30;;;11.40;99.90;11.30;100863.00;;;;5112440;28;20176;-73
2022/04/12 00:33:30;;;;;;;0.20;0.20;;;11.30;99.90;11.50;100878.00;;;;5113466;28;20253;-73
2022/04/12 00:36:04;;;;;;;0.53;0.53;;;11.30;99.90;11.30;100871.00;;;;5097272;28;20216;-73
2022/04/12 00:38:35;;;;;;;0.93;0.93;;;11.30;99.90;11.80;100871.00;;;;5114040;28;20187;-73
2022/04/12 00:41:11;;;;;;;0.30;0.30;;;11.40;99.90;11.70;100867.00;;;;5113843;28;20188;-73
2022/04/12 00:43:43;;;;;;;0.77;0.77;;;11.40;99.90;11.80;100879.00;;;;5113766;28;20174;-73
2022/04/12 00:46:14;;;;;;;1.70;0.50;;;11.50;99.90;11.80;100861.00;;;;5114044;28;20179;-73
2022/04/12 00:48:48;;;;;;;0.60;0.60;;;11.60;99.90;11.70;100865.00;;;;5114878;28;20607;-73
2022/04/12 00:51:20;;;;;;;0.20;0.20;;;11.50;99.90;11.60;100861.00;;;;5114003;28;20204;-73
2022/04/12 00:53:48;;;;;;;1.53;0.73;;;11.40;99.90;11.20;100868.00;;;;5114212;28;20251;-72
2022/04/12 00:56:23;;;;;;;0.53;0.23;;;11.30;99.90;11.40;100855.00;;;;5095895;28;20288;-73
2022/04/12 00:58:55;;;;;;;4.87;4.43;;;11.20;99.90;11.40;100855.00;;;;5095191;28;20212;-73
2022/04/12 01:01:29;;;;;;;0.33;0.33;;;11.20;99.90;11.30;100843.00;;;;5096306;28;21023;-73
2022/04/12 01:03:57;;;;;;;0.60;0.60;;;11.30;99.90;11.30;100831.00;;;;5096336;28;20196;-74
2022/04/12 01:06:28;;;;;;;1.70;0.83;;;11.30;99.90;11.00;100825.00;;;;5094999;28;20187;-73
2022/04/12 01:09:04;;;;;;;0.30;0.30;;;11.20;99.90;11.20;100831.00;;;;5096819;28;20173;-72
2022/04/12 01:11:40;;;;;;;0.30;0.30;;;11.20;99.90;11.50;100835.00;;;;5113399;28;20208;-73
2022/04/12 01:14:14;;;;;;;4.30;3.20;;;11.30;99.90;11.20;100834.00;;;;5097070;28;20575;-73
2022/04/12 01:16:46;;;;;;;0.77;0.63;;;11.20;99.90;11.40;100843.00;;;;5112162;28;20187;-72
2022/04/12 01:19:17;;;;;;;1.07;0.97;;;11.30;99.90;11.30;100831.00;;;;5112935;28;20189;-72
2022/04/12 01:21:52;;;;;;;0.20;0.20;;;11.30;99.90;11.40;100789.00;;;;5114890;28;20263;-73
2022/04/12 01:24:23;;;;;;;0.93;0.93;;;11.20;99.90;11.50;100796.00;;;;5113443;28;20186;-73
2022/04/12 01:26:55;;;;;;;0.20;0.20;;;11.30;99.90;11.60;100834.00;;;;5113721;28;20645;-73
2022/04/12 01:29:31;;;;;;;0.30;0.30;;;11.40;99.90;11.50;100847.00;;;;5114514;28;20178;-73
2022/04/12 01:32:07;;;;;;;0.70;0.70;;;11.30;99.90;11.50;100843.00;;;;5114279;28;20213;-74
2022/04/12 01:34:37;;;;;;;0.23;0.23;;;11.40;99.90;11.50;100791.00;;;;5096735;28;20212;-73
2022/04/12 01:37:14;;;;;;;0.97;0.70;;;11.30;99.90;11.60;100790.00;;;;5114467;28;20337;-73
2022/04/12 01:39:45;;;;;;;0.53;0.53;;;11.30;99.90;11.30;100828.00;;;;5112886;28;20283;-72
2022/04/12 01:42:19;;;;;;;0.30;0.30;;;11.30;99.90;11.10;100819.00;;;;5112602;28;20659;-73
2022/04/12 01:44:50;;;;;;;1.10;1.10;;;11.20;99.90;10.90;100818.00;;;;5113405;28;20262;-73
2022/04/12 01:47:26;;;;;;;2.57;1.20;;;11.10;99.90;11.00;100783.00;;;;5095397;28;20182;-73
2022/04/12 01:49:57;;;;;;;0.20;0.20;;;11.00;99.90;11.20;100797.00;;;;5113257;28;20256;-73
2022/04/12 01:52:32;;;;;;;0.20;0.20;;;11.10;99.90;11.10;100807.00;;;;5114041;28;20204;-74
2022/04/12 01:54:57;;;;;;;0.30;0.30;;;11.10;99.90;11.20;100838.00;;;;5113322;28;20183;-75
2022/04/12 01:57:29;;;;;;;0.30;0.30;;;11.10;99.90;11.40;100839.00;;;;5095115;28;20180;-73
2022/04/12 02:00:08;;;;;;;0.40;0.40;;;11.20;99.90;11.00;100826.00;;;;5095439;28;20263;-72
2022/04/12 02:02:39;;;;;;;0.40;0.40;;;11.10;99.90;11.10;100824.00;;;;5112794;28;20205;-73
2022/04/12 02:05:11;;;;;;;0.20;0.20;;;11.00;99.90;11.10;100824.00;;;;5112945;28;20201;-73
2022/04/12 02:07:43;;;;;;;0.50;0.50;;;11.10;99.90;11.20;100827.00;;;;5095491;28;20197;-72
2022/04/12 02:10:14;;;;;;;0.30;0.30;;;11.10;99.90;11.10;100782.00;;;;5112288;28;20189;-73
2022/04/12 02:12:45;;;;;;;0.67;0.67;;;11.00;99.90;11.00;100795.00;;;;5113525;28;20199;-72
2022/04/12 02:15:16;;;;;;;1.33;0.80;;;11.00;99.90;10.70;100791.00;;;;5095590;28;20659;-72
2022/04/12 02:17:47;;;;;;;0.40;0.40;;;10.80;99.90;10.80;100792.00;;;;5113097;28;20666;-74
2022/04/12 02:20:18;;;;;;;0.10;0.10;;;10.80;99.90;11.30;100791.00;;;;5093768;28;20228;-72
2022/04/12 02:22:50;;;;;;;1.80;1.70;;;10.90;99.90;11.00;100782.00;;;;5094264;28;20639;-73
2022/04/12 02:25:22;;;;;;;0.80;0.80;;;10.90;99.90;10.90;100782.00;;;;5113008;28;20225;-73
2022/04/12 02:27:53;;;;;;;0.60;0.60;;;10.90;99.90;11.00;100760.00;;;;5112278;28;20265;-73
2022/04/12 02:30:22;;;;;;;0.17;0.17;;;10.90;99.90;10.90;100720.00;;;;5095989;28;20180;-73
2022/04/12 02:32:51;;;;;;;0.40;0.30;;;10.90;99.90;10.60;100750.00;;;;5095318;28;20670;-73
2022/04/12 02:35:23;;;;;;;0.67;0.67;;;10.70;99.90;10.40;100736.00;;;;5094657;28;20187;-75
2022/04/12 02:37:51;;;;;;;0.50;0.50;;;10.60;99.90;10.40;100730.00;;;;5112758;28;20178;-73
2022/04/12 02:40:17;;;;;;;0.50;0.50;;;10.60;99.90;10.60;100726.00;;;;5112373;28;20165;-76
2022/04/12 02:42:49;;;;;;;0.77;0.77;;;10.60;99.90;10.70;100734.00;;;;5095269;28;20187;-76
2022/04/12 02:45:18;;;;;;;0.20;0.20;;;10.60;99.90;10.90;100736.00;;;;5095538;28;20647;-75
2022/04/12 02:47:44;;;;;;;0.60;0.60;;;10.70;99.90;10.90;100748.00;;;;5111685;28;20189;-75
2022/04/12 02:50:15;;;;;;;0.50;0.50;;;10.70;99.90;11.20;100754.00;;;;5095363;28;20178;-74
2022/04/12 02:52:49;;;;;;;0.20;0.20;;;10.80;99.90;10.80;100764.00;;;;5094277;28;20245;-74
2022/04/12 02:55:23;;;;;;;0.20;0.20;;;10.70;99.90;10.60;100708.00;;;;5111991;28;20174;-73
2022/04/12 02:57:52;;;;;;;0.23;0.23;;;10.70;99.90;10.80;100759.00;;;;5095164;28;20212;-74
2022/04/12 03:00:44;;;;;;;0.20;0.20;;;10.70;99.90;10.80;100771.00;;;;5112434;28;20599;-74
2022/04/12 03:03:17;;;;;;;0.33;0.33;;;10.70;99.90;10.90;100738.00;;;;5111967;28;20273;-74
2022/04/12 03:05:48;;;;;;;0.20;0.20;;;10.70;99.90;10.80;100735.00;;;;5113299;28;20183;-75
2022/04/12 03:08:20;;;;;;;0.30;0.30;;;10.70;99.90;11.10;100776.00;;;;5112091;28;20173;-74
2022/04/12 03:10:51;;;;;;;0.20;0.20;;;10.80;99.90;11.20;100785.00;;;;5112957;28;20676;-74
2022/04/12 03:13:22;;;;;;;0.20;0.20;;;10.90;99.90;11.50;100780.00;;;;5095162;28;20192;-74
2022/04/12 03:15:53;;;;;;;0.20;0.20;;;11.10;99.90;11.50;100791.00;;;;5111339;28;20194;-74
2022/04/12 03:18:25;;;;;;;0.20;0.20;;;11.10;99.90;10.90;100785.00;;;;5113504;28;20175;-73
2022/04/12 03:20:53;;;;;;;0.20;0.20;;;10.80;99.90;10.80;100764.00;;;;5099082;28;20683;-74
2022/04/12 03:23:27;;;;;;;0.40;0.30;;;10.70;99.90;10.90;100778.00;;;;5099023;28;20178;-74
2022/04/12 03:26:02;;;;;;;0.20;0.20;;;10.70;99.90;10.40;100766.00;;;;5098674;28;20634;-73
2022/04/12 03:28:33;;;;;;;0.20;0.20;;;10.60;99.90;10.70;100759.00;;;;5115423;28;20626;-72
2022/04/12 03:31:05;;;;;;;2.87;1.00;;;10.50;99.90;10.50;100760.00;;;;5117086;28;20229;-74
2022/04/12 03:33:36;;;;;;;0.30;0.30;;;10.60;99.90;10.50;100766.00;;;;5115708;28;20612;-73
2022/04/12 03:36:10;;;;;;;0.20;0.20;;;10.50;99.90;10.60;100767.00;;;;5114223;28;20297;-73
2022/04/12 03:38:48;;;;;;;0.60;0.60;;;10.50;99.90;10.80;100767.00;;;;5115478;28;20178;-73
2022/04/12 03:41:19;;;;;;;0.40;0.40;;;10.60;99.90;10.50;100767.00;;;;5115498;28;20540;-73
2022/04/12 03:43:51;;;;;;;0.20;0.20;;;10.60;99.90;10.50;100766.00;;;;5098143;28;20199;-73
2022/04/12 03:46:27;;;;;;;0.20;0.20;;;10.50;99.90;10.60;100765.00;;;;5116735;28;20209;-73
2022/04/12 03:49:01;;;;;;;0.40;0.40;;;10.50;99.90;10.30;100759.00;;;;5114132;28;20204;-73
2022/04/12 03:51:32;;;;;;;0.50;0.50;;;10.30;99.90;10.50;100765.00;;;;5098931;28;20338;-72
2022/04/12 03:54:04;;;;;;;0.20;0.20;;;10.50;99.90;10.40;100746.00;;;;5115303;28;20742;-73
2022/04/12 03:56:35;;;;;;;0.70;0.70;;;10.40;99.90;10.30;100757.00;;;;5115103;28;20177;-72
2022/04/12 03:59:10;;;;;;;0.70;0.70;;;10.30;99.90;10.20;100743.00;;;;5114177;28;20166;-74
2022/04/12 04:01:41;;;;;;;0.37;0.37;;;10.20;99.90;10.50;100750.00;;;;5115382;28;20664;-73
2022/04/12 04:04:07;;;;;;;0.93;0.63;;;10.30;99.90;10.20;100750.00;;;;5098637;28;20669;-73
2022/04/12 04:06:38;;;;;;;0.70;0.70;;;10.30;99.90;10.20;100745.00;;;;5097625;28;20181;-73
2022/04/12 04:09:09;;;;;;;1.23;1.23;;;10.30;99.90;10.10;100733.00;;;;5114758;28;20636;-73
2022/04/12 04:11:42;;;;;;;0.20;0.20;;;10.20;99.90;10.20;100725.00;;;;5097847;28;20196;-73
2022/04/12 04:14:15;;;;;;;0.60;0.60;;;10.30;99.90;10.30;100722.00;;;;5115132;28;20176;-74
2022/04/12 04:16:42;;;;;;;0.20;0.20;;;10.30;99.90;10.30;100729.00;;;;5114619;28;20203;-73
2022/04/12 04:19:17;;;;;;;0.30;0.30;;;10.20;99.90;10.20;100723.00;;;;5097783;28;20181;-73
2022/04/12 04:21:55;;;;;;;0.20;0.20;;;10.20;99.90;10.30;100715.00;;;;5097889;28;20569;-73
2022/04/12 04:24:24;;;;;;;0.77;0.77;;;10.20;99.90;10.30;100727.00;;;;5098282;28;20172;-74
2022/04/12 04:26:58;;;;;;;2.33;1.23;;;10.20;99.90;10.30;100739.00;;;;5114395;28;20204;-73
2022/04/12 04:29:35;;;;;;;0.23;0.23;;;10.20;99.90;10.40;100725.00;;;;5097825;28;20172;-73
2022/04/12 04:32:07;;;;;;;0.80;0.70;;;10.20;99.90;10.10;100721.00;;;;5097795;28;20316;-73
2022/04/12 04:34:40;;;;;;;0.33;0.33;;;10.20;99.90;10.10;100713.00;;;;5114731;28;20241;-73
2022/04/12 04:37:15;;;;;;;0.80;0.80;;;10.10;99.90;9.90;100630.00;;;;5096227;28;20224;-73
2022/04/12 04:39:46;;;;;;;0.77;0.77;;;10.00;99.90;9.80;100716.00;;;;5114480;28;20262;-75
2022/04/12 04:42:20;;;;;;;1.10;1.00;;;10.00;99.90;10.20;100714.00;;;;5097539;28;20321;-75
2022/04/12 04:44:48;;;;;;;0.60;0.60;;;10.10;99.90;10.10;100720.00;;;;5115908;28;20196;-74
2022/04/12 04:47:22;;;;;;;0.30;0.30;;;10.00;99.90;10.00;100717.00;;;;5097409;28;20597;-73
2022/04/12 04:49:48;;;;;;;0.90;0.90;;;10.00;99.90;9.70;100721.00;;;;5097468;28;20206;-74
2022/04/12 04:52:23;;;;;;;0.63;0.63;;;9.90;99.90;9.60;100708.00;;;;5095474;28;20250;-73
2022/04/12 04:54:59;;;;;;;0.37;0.37;;;9.80;99.90;9.90;100714.00;;;;5097892;28;20626;-74
2022/04/12 04:57:28;;;;;;;0.70;0.70;;;9.90;99.90;9.80;100712.00;;;;5114102;28;20219;-74
2022/04/12 05:00:07;;;;;;;3.70;1.07;;;9.80;99.90;9.60;100699.00;;;;5096695;28;20185;-73
2022/04/12 05:02:49;;;;;;;0.50;0.50;;;9.80;99.90;9.60;100671.00;;;;5096672;28;20614;-73
2022/04/12 05:05:21;;;;;;;0.30;0.30;;;9.90;99.90;9.40;100642.00;;;;5114320;28;20267;-73
2022/04/12 05:07:52;;;;;;;0.57;0.50;;;9.80;99.90;9.70;100700.00;;;;5113029;28;20195;-74
2022/04/12 05:10:30;;;;;;;0.50;0.50;;;9.80;99.90;9.70;100708.00;;;;5115108;28;20181;-74
2022/04/12 05:12:58;;;;;;;1.53;1.47;;;9.70;99.90;9.80;100655.00;;;;5112193;28;20216;-73
2022/04/12 05:15:24;;;;;;;0.60;0.60;;;9.80;99.90;10.20;100707.00;;;;5096879;28;20206;-75
2022/04/12 05:17:54;;;;;;;0.77;0.77;;;9.90;99.90;9.90;100699.00;;;;5112553;28;20176;-74
2022/04/12 05:20:25;;;;;;;1.73;1.30;;;9.90;99.90;9.90;100713.00;;;;5113445;28;20176;-75
2022/04/12 05:22:51;;;;;;;0.27;0.27;;;9.90;99.90;9.60;100715.00;;;;5096436;28;20623;-74
2022/04/12 05:25:20;;;;;;;1.60;1.50;;;9.90;99.90;9.90;100722.00;;;;5096400;28;20203;-74
2022/04/12 05:27:46;;;;;;;5.13;1.57;;;9.90;99.90;10.00;100725.00;;;;5096486;28;20258;-77
2022/04/12 05:30:21;;;;;;;2.90;1.60;;;10.00;99.90;10.10;100737.00;;;;5114448;28;20180;-75
2022/04/12 05:32:53;;;;;;;0.93;0.87;;;10.10;99.90;10.50;100725.00;;;;5111995;28;20220;-74
2022/04/12 05:35:24;;;;;;;0.80;0.80;;;10.30;99.90;10.50;100727.00;;;;5114358;28;20184;-75
2022/04/12 05:37:58;;;;;;;0.93;0.93;;;10.30;99.90;10.50;100720.00;;;;5096041;28;20573;-74
2022/04/12 05:40:27;;;;;;;2.33;1.27;;;10.40;99.90;10.20;100730.00;;;;5113230;28;20176;-76
2022/04/12 05:42:58;;;;;;;4.67;1.63;;;10.40;99.90;10.60;100698.00;;;;5114147;28;20181;-75
2022/04/12 05:45:32;;;;;;;1.10;1.00;;;10.50;99.90;10.70;100727.00;;;;5112833;28;20204;-74
2022/04/12 05:48:00;;;;;;;1.07;1.00;;;10.60;99.90;10.90;100735.00;;;;5113354;28;20692;-73
2022/04/12 05:50:28;;;;;;;2.67;2.13;;;10.80;99.90;10.60;100742.00;;;;5095454;28;20226;-74
2022/04/12 05:52:54;;;;;;;0.80;0.80;;;10.70;99.90;10.80;100718.00;;;;5112400;28;20209;-73
2022/04/12 05:55:30;;;;;;;0.23;0.23;;;10.70;99.90;11.40;100706.00;;;;5113185;28;20176;-73
2022/04/12 05:58:01;;;;;;;0.90;0.90;;;11.10;99.90;12.10;100768.00;;;;5112498;28;20179;-74
2022/04/12 06:00:34;;;;;;;0.63;0.63;;;11.60;99.90;12.20;100770.00;;;;5113059;28;20577;-74
2022/04/12 06:03:06;;;;;;;0.47;0.47;;;11.90;99.90;12.70;100776.00;;;;5112375;28;20191;-73
2022/04/12 06:05:38;;;;;;;2.27;0.33;;;12.20;99.90;12.40;100792.00;;;;5113225;28;20180;-72
2022/04/12 06:08:07;;;;;;;0.73;0.73;;;12.30;99.90;13.30;100797.00;;;;5112458;28;20185;-73
2022/04/12 06:10:36;;;;;;;0.63;0.63;;;12.80;99.90;13.90;100805.00;;;;5113624;28;20167;-74
2022/04/12 06:13:10;;;;;;;0.70;0.70;;;13.20;99.90;13.30;100779.00;;;;5095127;28;20237;-73
2022/04/12 06:15:36;;;;;;;0.37;0.37;;;13.50;99.90;13.30;100807.00;;;;5113116;28;20214;-74
2022/04/12 06:18:11;;;;;;;0.50;0.50;;;13.50;99.90;14.50;100822.00;;;;5095252;28;20174;-73
2022/04/12 06:20:42;;;;;;;0.20;0.20;;;14.00;99.90;14.80;100784.00;;;;5114096;28;20172;-74
2022/04/12 06:23:17;;;;;;;0.20;0.20;;;14.30;99.90;15.50;100822.00;;;;5111780;28;20536;-74
2022/04/12 06:25:51;;;;;;;2.13;1.03;;;14.90;99.90;15.10;100779.00;;;;5096168;28;20184;-73
2022/04/12 06:28:29;;;;;;;0.53;0.53;;;14.80;99.90;14.60;100782.00;;;;5112077;28;20178;-73
2022/04/12 06:31:04;;;;;;;0.20;0.20;;;14.50;99.90;15.30;100773.00;;;;5112827;28;20179;-73
2022/04/12 06:33:35;;;;;;;0.83;0.80;;;14.70;99.90;14.40;100779.00;;;;5112278;28;20198;-73
2022/04/12 06:36:07;;;;;;;1.70;1.60;;;14.60;99.90;14.90;100793.00;;;;5094383;28;20673;-73
2022/04/12 06:38:41;;;;;;;0.63;0.63;;;14.60;99.90;15.00;100798.00;;;;5112206;28;20183;-74
2022/04/12 06:41:14;;;;;;;0.60;0.60;;;14.70;99.90;15.50;100803.00;;;;5112754;28;20182;-74
2022/04/12 06:43:48;;;;;;;0.20;0.20;;;15.00;99.90;15.60;100815.00;;;;5095017;28;20196;-75
2022/04/12 06:46:14;;;;;;;1.13;0.93;;;15.30;99.90;15.50;100817.00;;;;5112698;28;20187;-75
2022/04/12 06:48:46;;;;;;;0.40;0.40;;;15.60;99.90;16.10;100836.00;;;;5094774;28;20176;-74
2022/04/12 06:51:12;;;;;;;0.10;0.10;;;15.70;99.90;16.90;100789.00;;;;5095532;28;20182;-75
2022/04/12 06:53:40;;;;;;;0.20;0.20;;;16.10;99.90;16.70;100827.00;;;;5096034;28;20574;-74
2022/04/12 06:56:06;;;;;;;0.20;0.20;;;16.20;99.90;16.60;100824.00;;;;5099662;28;20232;-75
2022/04/12 06:58:33;;;;;;;0.20;0.20;;;16.10;99.90;16.70;100833.00;;;;5114187;28;20638;-75
2022/04/12 07:00:59;;;;;;;0.30;0.30;;;16.50;99.90;16.20;100856.00;;;;5112027;28;20190;-75
2022/04/12 07:03:25;;;;;;;0.23;0.23;;;16.20;99.90;15.50;100844.00;;;;5096065;28;20233;-75
2022/04/12 07:05:56;;;;;;;0.10;0.10;;;15.60;99.90;15.80;100848.00;;;;5111029;28;20189;-75
2022/04/12 07:08:23;;;;;;;0.30;0.30;;;15.70;99.90;16.90;100834.00;;;;5116303;28;20235;-76
2022/04/12 07:10:50;;;;;;;0.43;0.43;;;16.20;99.90;17.80;100831.00;;;;5117028;28;20211;-76
2022/04/12 07:13:16;;;;;;;0.10;0.10;;;16.80;99.90;16.90;100820.00;;;;5092223;28;20253;-75
2022/04/12 07:15:43;;;;;;;0.80;0.80;;;16.70;99.90;17.00;100821.00;;;;5078921;28;20208;-76
2022/04/12 07:18:10;;;;;;;0.32;0.32;;;16.80;99.90;17.30;100814.00;;;;5097260;28;20181;-75
2022/04/12 07:20:36;;;;;;;0.40;0.40;;;17.10;99.90;17.30;100828.00;;;;5078243;28;20752;-75
2022/04/12 07:23:02;;;;;;;0.47;0.47;;;17.10;99.90;17.20;100843.00;;;;5078532;28;20211;-74
2022/04/12 07:25:27;;;;;;;1.05;0.95;;;16.90;99.90;16.90;100833.00;;;;5078975;28;20218;-73
2022/04/12 07:27:53;;;;;;;0.20;0.20;;;16.70;99.90;17.20;100838.00;;;;5096605;28;20194;-73
2022/04/12 07:30:19;;;;;;;0.30;0.30;;;16.80;99.90;17.20;100831.00;;;;5077825;28;20208;-74
2022/04/12 07:32:45;;;;;;;1.33;0.98;;;17.00;99.90;18.30;100822.00;;;;5077905;28;20189;-74
2022/04/12 07:35:14;;;;;;;0.22;0.22;;;17.60;99.90;18.50;100810.00;;;;5078043;28;20527;-74
2022/04/12 07:37:43;;;;;;;1.75;1.13;;;18.20;99.90;18.20;100815.00;;;;5077281;28;20242;-73
2022/04/12 07:40:14;;;;;;;0.25;0.25;;;17.90;99.90;18.80;100791.00;;;;5108024;28;20672;-66
2022/04/12 07:42:42;;;;;;;2.75;0.52;;;18.10;99.90;18.30;100818.00;;;;5096434;28;20224;-72
2022/04/12 07:45:09;;;;;;;0.65;0.65;;;18.10;99.90;18.40;100805.00;;;;5078313;28;20271;-73
2022/04/12 07:47:35;;;;;;;1.27;1.20;;;18.30;99.90;19.00;100761.00;;;;5078205;28;20249;-73
2022/04/12 07:50:03;;;;;;;0.20;0.20;;;18.50;99.90;18.70;100803.00;;;;5077889;28;20624;-73
2022/04/12 07:52:31;;;;;;;1.60;1.55;;;18.70;99.90;17.80;100807.00;;;;5094977;28;20165;-73
2022/04/12 07:54:57;;;;;;;2.00;0.90;;;18.30;99.90;18.60;100814.00;;;;5095095;28;20565;-73
2022/04/12 07:57:25;;;;;;;0.30;0.30;;;18.50;99.90;18.10;100816.00;;;;5077837;28;20284;-70
2022/04/12 07:59:51;;;;;;;0.35;0.35;;;18.20;99.90;17.70;100790.00;;;;5077368;28;20180;-72
2022/04/12 08:02:17;;;;;;;0.93;0.57;;;17.80;99.90;17.90;100819.00;;;;5082548;28;20261;-72
2022/04/12 08:04:45;;;;;;;1.05;1.05;;;17.80;99.90;19.10;100812.00;;;;5094023;28;20225;-71
2022/04/12 08:07:11;;;;;;;0.13;0.13;;;18.40;99.90;19.00;100802.00;;;;5111622;28;20662;-71
2022/04/12 08:09:40;;;;;;;0.73;0.73;;;18.80;99.90;18.50;100815.00;;;;5097058;28;20214;-71
2022/04/12 08:12:06;;;;;;;0.30;0.30;;;18.40;99.90;18.40;100793.00;;;;5113960;28;20172;-74
2022/04/12 08:14:35;;;;;;;2.22;1.63;;;18.30;99.90;18.60;100806.00;;;;5097019;28;20203;-74
2022/04/12 08:17:02;;;;;;;0.30;0.30;;;18.50;99.90;19.60;100776.00;;;;5097751;28;20180;-73
2022/04/12 08:19:28;;;;;;;0.47;0.47;;;18.90;99.90;18.90;100813.00;;;;5113629;28;20232;-64
2022/04/12 08:21:54;;;;;;;0.35;0.30;;;19.00;99.90;19.00;100803.00;;;;5113874;28;20692;-68
2022/04/12 08:24:21;;;;;;;0.75;0.63;;;19.10;99.90;19.00;100770.00;;;;5096507;28;20219;-69
2022/04/12 08:26:48;;;;;;;1.00;0.95;;;18.90;99.90;19.60;100802.00;;;;5115825;28;20270;-72
2022/04/12 08:29:14;;;;;;;0.52;0.43;;;19.10;99.90;18.80;100805.00;;;;5114475;28;20180;-72
2022/04/12 08:31:41;;;;;;;0.22;0.22;;;18.80;99.90;19.80;100764.00;;;;5114962;28;20530;-73
2022/04/12 08:34:07;;;;;;;0.17;0.17;;;19.30;99.90;19.70;100804.00;;;;5115676;28;20184;-73
2022/04/12 08:36:33;;;;;;;0.20;0.20;;;19.50;99.90;20.40;100791.00;;;;5114641;28;20172;-69
2022/04/12 08:38:59;;;;;;;0.98;0.80;;;19.80;99.90;20.00;100779.00;;;;5097484;28;20180;-68
2022/04/12 08:41:32;;;;;;;0.65;0.60;;;19.70;99.90;20.20;100783.00;;;;5097456;28;20249;-79
2022/04/12 08:43:59;;;;;;;0.50;0.50;;;19.80;99.90;20.10;100794.00;;;;5095216;28;20191;-79
2022/04/12 08:46:27;;;;;;;0.75;0.70;;;19.80;99.90;20.20;100747.00;;;;5113356;28;20184;-67
2022/04/12 08:49:00;;;;;;;0.47;0.47;;;19.80;99.90;20.10;100786.00;;;;5108987;28;20646;-76
2022/04/12 08:51:30;;;;;;;0.40;0.40;;;19.80;99.90;20.30;100773.00;;;;5097029;28;20226;-70
2022/04/12 08:53:59;;;;;;;0.88;0.80;;;19.90;99.90;20.00;100724.00;;;;5097667;28;20184;-71
2022/04/12 08:56:27;;;;;;;32.10;4.57;;;20.10;99.90;20.10;100759.00;;;;5114177;28;20254;-72
2022/04/12 08:59:07;;;;;;;2.13;0.73;;;19.90;99.90;20.30;100736.00;;;;5097108;28;20190;-71
2022/04/12 09:01:42;;;;;;;2.00;1.90;;;19.90;99.90;20.20;100771.00;;;;5097553;28;20233;-86
2022/04/12 09:04:09;;;;;;;1.73;1.33;;;19.90;99.90;20.30;100754.00;;;;5114316;28;20176;-68
2022/04/12 09:06:46;;;;;;;2.30;0.85;;;20.00;99.90;20.70;100763.00;;;;5115021;28;20263;-70
2022/04/12 09:09:21;;;;;;;4.00;1.98;;;20.20;99.90;20.60;100777.00;;;;5112906;28;20180;-73
2022/04/12 09:12:11;;;;;;;0.10;0.10;;;20.30;99.90;20.30;100792.00;;;;5112710;28;20287;-72
2022/04/12 09:14:43;;;;;;;7.65;7.13;;;20.30;99.90;20.50;100803.00;;;;5094228;28;20755;-69
2022/04/12 09:17:19;;;;;;;1.52;0.57;;;20.30;99.90;19.90;100811.00;;;;5111657;28;20188;-71
2022/04/12 09:19:52;;;;;;;0.73;0.50;;;19.90;99.90;20.40;100782.00;;;;5095100;28;20200;-72
2022/04/12 09:22:29;;;;;;;0.65;0.65;;;20.00;99.90;20.40;100729.00;;;;5112128;28;20244;-73
2022/04/12 09:25:06;;;;;;;1.27;0.73;;;20.00;99.90;19.90;100776.00;;;;5096170;28;20176;-72
2022/04/12 09:27:38;;;;;;;0.38;0.38;;;19.80;99.90;19.60;100772.00;;;;5095882;28;20207;-73
2022/04/12 09:30:16;;;;;;;0.15;0.15;;;19.50;99.90;19.30;100784.00;;;;5114799;28;20180;-68
2022/04/12 09:32:56;;;;;;;3.20;0.90;;;19.20;99.90;20.20;100777.00;;;;5113376;28;20196;-69
2022/04/12 09:35:25;;;;;;;1.20;1.08;;;19.60;99.90;20.30;100790.00;;;;5113704;28;20188;-71
2022/04/12 09:37:51;;;;;;;0.70;0.50;;;19.90;99.90;20.80;100801.00;;;;5088531;28;20219;-72
2022/04/12 09:40:25;;;;;;;0.22;0.22;;;20.20;99.90;20.50;100798.00;;;;5101835;28;20218;-72
2022/04/12 09:43:14;;;;;;;0.30;0.30;;;20.40;99.90;21.00;100818.00;;;;5091985;28;20195;-72
2022/04/12 09:45:45;;;;;;;0.20;0.20;;;20.60;99.90;20.50;100815.00;;;;5075172;28;20271;-73
2022/04/12 09:48:30;;;;;;;0.38;0.38;;;20.40;99.90;20.50;100792.00;;;;5075726;28;20271;-72
2022/04/12 09:51:07;;;;;;;2.90;2.80;;;20.20;99.90;19.90;100834.00;;;;5092939;28;20241;-72
2022/04/12 09:53:40;;;;;;;2.28;1.38;;;19.90;99.90;20.50;100819.00;;;;5076480;28;20184;-72
2022/04/12 09:56:29;;;;;;;0.40;0.40;;;20.10;99.90;20.40;100794.00;;;;5090592;28;20221;-72
2022/04/12 09:59:06;;;;;;;0.45;0.45;;;20.20;99.90;20.80;100753.00;;;;5090721;28;20199;-72
2022/04/12 10:01:41;;;;;;;0.20;0.20;;;20.50;99.90;21.50;100764.00;;;;5090720;28;20690;-71
2022/04/12 10:04:15;;;;;;;0.40;0.40;;;20.90;99.90;22.10;100778.00;;;;5090486;28;20179;-71
2022/04/12 10:06:43;;;;;;;0.38;0.38;;;21.50;99.90;22.70;100757.00;;;;5090514;28;20169;-67
2022/04/12 10:09:17;;;;;;;0.35;0.35;;;21.90;99.90;22.10;100767.00;;;;5087347;28;20195;-67
2022/04/12 10:11:43;;;;;;;0.55;0.55;;;21.90;99.90;22.10;100808.00;;;;5096377;28;20172;-68
2022/04/12 10:14:14;;;;;;;0.15;0.15;;;21.90;99.90;22.70;100757.00;;;;5113280;28;20189;-68
2022/04/12 10:16:46;;;;;;;0.43;0.43;;;22.10;99.90;22.00;100779.00;;;;5113961;28;20180;-68
2022/04/12 10:19:13;;;;;;;0.20;0.20;;;22.10;99.90;22.20;100799.00;;;;5092002;28;20175;-70
2022/04/12 10:33:26;;;;;;;0.55;0.55;;;21.60;99.90;21.80;100764.00;;;;5070565;28;20945;-69
2022/04/12 10:35:57;;;;;;;0.65;0.65;;;21.70;99.90;22.40;100775.00;;;;5049304;28;20208;-68
2022/04/12 10:38:39;;;;;;;1.40;1.30;;;21.80;99.90;22.70;100738.00;;;;5050435;28;20200;-73
2022/04/12 10:41:17;;;;;;;0.20;0.20;;;22.30;99.90;22.60;100762.00;;;;5065788;28;20217;-75
2022/04/12 10:43:54;;;;;;;0.60;0.60;;;22.50;99.90;22.10;100764.00;;;;5049073;28;20236;-75
2022/04/12 10:46:53;;;;;;;0.10;0.10;;;22.30;99.90;21.50;100767.00;;;;5050028;28;20181;-74
2022/04/12 10:49:26;;;;;;;0.35;0.35;;;22.10;99.90;21.20;100777.00;;;;5050124;28;20187;-81
2022/04/12 10:52:02;;;;;;;0.40;0.40;;;21.40;99.90;21.80;100755.00;;;;5065658;28;20732;-80
2022/04/12 10:54:35;;;;;;;2.72;0.65;;;21.50;99.90;21.90;100765.00;;;;5064865;28;20193;-80
2022/04/12 10:57:23;;;;;;;0.70;0.70;;;21.70;99.90;21.70;100759.00;;;;5050628;28;20237;-76
2022/04/12 11:00:14;;;;;;;0.95;0.88;;;21.70;99.90;21.60;100770.00;;;;5065161;28;20175;-73
2022/04/12 11:02:45;;;;;;;0.10;0.10;;;21.70;99.90;22.20;100753.00;;;;5049112;28;20270;-71
2022/04/12 11:05:33;;;;;;;0.22;0.22;;;21.80;99.90;21.90;100757.00;;;;5049849;28;20179;-73
2022/04/12 11:08:18;;;;;;;0.98;0.50;;;22.00;99.90;21.90;100755.00;;;;5065241;28;20171;-74
2022/04/12 11:10:56;;;;;;;0.20;0.20;;;21.90;99.90;22.10;100749.00;;;;5049707;28;20639;-73
2022/04/12 11:13:34;;;;;;;0.35;0.15;;;22.00;99.90;22.50;100748.00;;;;5065355;28;20185;-73
2022/04/12 11:16:14;;;;;;;0.20;0.20;;;22.00;99.90;23.50;100723.00;;;;5048685;28;20177;-74
2022/04/12 11:18:58;;;;;;;0.13;0.13;;;22.70;99.90;22.70;100713.00;;;;5048835;28;20171;-73
2022/04/12 11:21:55;;;;;;;0.65;0.52;;;22.80;99.90;22.90;100738.00;;;;5031963;28;20186;-73